createdAt,value
2019-03-31T00:01:07.567Z,42.43
2019-03-31T00:01:57.476Z,42.02
2019-03-31T00:02:57.462Z,41.17
2019-03-31T00:03:57.450Z,40.52
2019-03-31T00:04:57.436Z,39.65
2019-03-31T00:05:57.423Z,39.36
2019-03-31T00:06:57.411Z,39.65
2019-03-31T00:07:57.397Z,38.79
2019-03-31T00:08:57.381Z,38.98
2019-03-31T00:09:57.365Z,38.51
2019-03-31T00:11:00.538Z,38.89
2019-03-31T00:11:57.334Z,38.70
2019-03-31T00:12:57.323Z,39.55
2019-03-31T00:13:57.308Z,40.22
2019-03-31T00:14:57.296Z,40.22
2019-03-31T00:15:57.283Z,40.12
2019-03-31T00:16:57.264Z,40.50
2019-03-31T00:17:57.255Z,40.79
2019-03-31T00:18:57.239Z,40.88
2019-03-31T00:19:57.223Z,41.26
2019-03-31T00:20:57.213Z,41.26
2019-03-31T00:21:57.198Z,41.64
2019-03-31T00:22:57.182Z,41.74
2019-03-31T00:23:57.166Z,41.55
2019-03-31T00:24:57.154Z,41.74
2019-03-31T00:25:57.138Z,41.83
2019-03-31T00:26:57.126Z,42.31
2019-03-31T00:27:57.110Z,42.02
2019-03-31T00:28:57.094Z,42.60
2019-03-31T00:29:57.089Z,42.69
2019-03-31T00:30:57.072Z,42.79
2019-03-31T00:31:57.053Z,42.02
2019-03-31T00:32:57.041Z,42.50
2019-03-31T00:33:57.030Z,41.36
2019-03-31T00:34:57.011Z,40.22
2019-03-31T00:35:56.999Z,40.03
2019-03-31T00:36:56.989Z,40.50
2019-03-31T00:37:56.971Z,41.36
2019-03-31T00:38:56.957Z,41.83
2019-03-31T00:39:56.949Z,41.93
2019-03-31T00:40:57.000Z,42.00
2019-03-31T00:41:56.911Z,41.72
2019-03-31T00:42:56.896Z,41.34
2019-03-31T00:43:56.884Z,40.86
2019-03-31T00:44:56.868Z,40.77
2019-03-31T00:45:56.855Z,40.58
2019-03-31T00:46:56.844Z,40.67
2019-03-31T00:47:56.827Z,40.10
2019-03-31T00:48:56.816Z,39.81
2019-03-31T00:49:56.797Z,40.01
2019-03-31T00:50:56.787Z,39.62
2019-03-31T00:51:56.771Z,39.81
2019-03-31T00:52:56.762Z,39.62
2019-03-31T00:53:56.740Z,39.81
2019-03-31T00:54:56.726Z,40.20
2019-03-31T00:55:56.718Z,40.58
2019-03-31T00:56:56.703Z,40.39
2019-03-31T00:57:56.686Z,40.39
2019-03-31T00:58:56.672Z,39.91
2019-03-31T00:59:56.656Z,39.81
2019-03-31T01:00:56.643Z,40.20
2019-03-31T01:01:56.667Z,38.98
2019-03-31T01:02:56.619Z,38.10
2019-03-31T01:03:56.602Z,38.29
2019-03-31T01:04:56.589Z,39.06
2019-03-31T01:05:56.577Z,39.06
2019-03-31T01:06:56.556Z,40.29
2019-03-31T01:07:56.539Z,41.81
2019-03-31T01:08:56.533Z,42.47
2019-03-31T01:09:56.519Z,42.38
2019-03-31T01:10:56.498Z,42.47
2019-03-31T01:11:56.482Z,41.72
2019-03-31T01:12:56.472Z,41.72
2019-03-31T01:13:56.456Z,41.34
2019-03-31T01:14:56.443Z,41.72
2019-03-31T01:15:56.435Z,42.19
2019-03-31T01:16:56.433Z,42.67
2019-03-31T01:17:56.396Z,42.57
2019-03-31T01:18:56.384Z,42.08
2019-03-31T01:19:56.368Z,41.91
2019-03-31T01:20:56.354Z,42.10
2019-03-31T01:21:56.339Z,41.91
2019-03-31T01:22:56.325Z,42.29
2019-03-31T01:23:56.313Z,42.19
2019-03-31T01:24:56.299Z,41.14
2019-03-31T01:25:56.282Z,41.24
2019-03-31T01:26:56.268Z,41.14
2019-03-31T01:27:56.252Z,41.24
2019-03-31T01:28:56.237Z,41.34
2019-03-31T01:29:56.222Z,41.34
2019-03-31T01:30:56.212Z,41.24
2019-03-31T01:31:56.209Z,40.39
2019-03-31T01:32:56.180Z,39.81
2019-03-31T01:33:56.170Z,39.79
2019-03-31T01:34:56.153Z,39.04
2019-03-31T01:35:56.143Z,39.79
2019-03-31T01:36:56.217Z,40.37
2019-03-31T01:37:56.111Z,41.13
2019-03-31T01:38:56.094Z,41.89
2019-03-31T01:39:56.079Z,42.55
2019-03-31T01:40:56.063Z,42.36
2019-03-31T01:41:56.048Z,42.17
2019-03-31T01:42:56.036Z,42.08
2019-03-31T01:43:56.022Z,42.36
2019-03-31T01:44:56.006Z,43.02
2019-03-31T01:45:56.063Z,42.83
2019-03-31T01:46:55.980Z,42.36
2019-03-31T01:47:55.961Z,41.69
2019-03-31T01:48:55.947Z,40.46
2019-03-31T01:49:55.928Z,40.17
2019-03-31T01:50:55.920Z,40.27
2019-03-31T01:51:55.911Z,41.41
2019-03-31T01:52:55.905Z,41.41
2019-03-31T01:53:55.886Z,41.13
2019-03-31T01:54:55.869Z,40.84
2019-03-31T01:55:55.842Z,41.31
2019-03-31T01:56:55.830Z,41.03
2019-03-31T01:57:55.816Z,41.41
2019-03-31T01:58:55.802Z,41.22
2019-03-31T01:59:55.791Z,40.27
2019-03-31T02:00:55.773Z,41.03
2019-03-31T02:02:04.020Z,40.08
2019-03-31T02:02:55.740Z,39.98
2019-03-31T02:03:55.726Z,39.79
2019-03-31T02:04:55.716Z,40.65
2019-03-31T02:05:55.693Z,41.22
2019-03-31T02:06:55.688Z,41.69
2019-03-31T02:07:55.674Z,41.89
2019-03-31T02:08:55.653Z,42.36
2019-03-31T02:09:55.640Z,41.89
2019-03-31T02:10:55.625Z,41.69
2019-03-31T02:11:55.611Z,41.60
2019-03-31T02:12:55.597Z,41.91
2019-03-31T02:13:55.667Z,41.91
2019-03-31T02:14:55.568Z,41.98
2019-03-31T02:15:55.554Z,42.08
2019-03-31T02:16:55.540Z,41.89
2019-03-31T02:17:55.522Z,41.14
2019-03-31T02:18:55.506Z,41.31
2019-03-31T02:19:55.492Z,41.62
2019-03-31T02:20:55.484Z,40.48
2019-03-31T02:21:55.464Z,41.43
2019-03-31T02:22:55.446Z,42.38
2019-03-31T02:23:55.447Z,43.31
2019-03-31T02:24:55.422Z,43.52
2019-03-31T02:25:55.406Z,42.95
2019-03-31T02:26:55.386Z,41.62
2019-03-31T02:27:55.381Z,40.65
2019-03-31T02:28:55.366Z,41.22
2019-03-31T02:29:55.352Z,41.79
2019-03-31T02:30:55.331Z,42.83
2019-03-31T02:31:55.317Z,43.41
2019-03-31T02:32:55.304Z,43.60
2019-03-31T02:33:55.292Z,42.65
2019-03-31T02:34:55.275Z,40.65
2019-03-31T02:35:55.263Z,39.61
2019-03-31T02:36:55.246Z,39.79
2019-03-31T02:37:55.237Z,38.28
2019-03-31T02:38:55.213Z,38.37
2019-03-31T02:39:55.205Z,39.23
2019-03-31T02:40:55.188Z,40.46
2019-03-31T02:41:55.171Z,41.03
2019-03-31T02:42:55.160Z,41.89
2019-03-31T02:43:55.143Z,42.17
2019-03-31T02:44:55.128Z,42.36
2019-03-31T02:45:55.113Z,42.93
2019-03-31T02:46:55.097Z,43.12
2019-03-31T02:47:55.083Z,43.69
2019-03-31T02:48:55.133Z,44.17
2019-03-31T02:49:55.057Z,44.35
2019-03-31T02:50:55.047Z,42.74
2019-03-31T02:51:55.028Z,40.08
2019-03-31T02:52:55.008Z,39.23
2019-03-31T02:53:54.995Z,38.94
2019-03-31T02:54:54.983Z,39.98
2019-03-31T02:55:54.961Z,40.56
2019-03-31T02:56:54.949Z,42.17
2019-03-31T02:57:54.941Z,42.74
2019-03-31T02:58:54.924Z,42.46
2019-03-31T02:59:54.905Z,42.55
2019-03-31T03:00:54.895Z,42.83
2019-03-31T03:01:54.881Z,42.83
2019-03-31T03:02:54.861Z,42.93
2019-03-31T03:03:54.846Z,42.27
2019-03-31T03:04:54.834Z,41.13
2019-03-31T03:05:54.817Z,39.70
2019-03-31T03:06:54.799Z,39.04
2019-03-31T03:07:54.787Z,39.98
2019-03-31T03:08:54.775Z,40.17
2019-03-31T03:09:54.760Z,40.65
2019-03-31T03:10:54.748Z,41.22
2019-03-31T03:11:54.732Z,41.13
2019-03-31T03:12:54.721Z,41.31
2019-03-31T03:13:54.699Z,42.27
2019-03-31T03:14:54.685Z,42.93
2019-03-31T03:15:54.673Z,43.60
2019-03-31T03:16:54.659Z,42.93
2019-03-31T03:17:54.639Z,41.69
2019-03-31T03:18:54.632Z,40.06
2019-03-31T03:19:54.625Z,39.49
2019-03-31T03:20:54.592Z,39.04
2019-03-31T03:21:54.582Z,39.01
2019-03-31T03:22:54.567Z,40.08
2019-03-31T03:23:54.554Z,40.17
2019-03-31T03:24:55.507Z,40.75
2019-03-31T03:25:56.676Z,41.20
2019-03-31T03:26:54.507Z,40.17
2019-03-31T03:27:54.495Z,39.49
2019-03-31T03:28:54.481Z,38.75
2019-03-31T03:29:54.466Z,40.08
2019-03-31T03:30:54.730Z,39.79
2019-03-31T03:31:54.431Z,40.06
2019-03-31T03:33:13.805Z,40.16
2019-03-31T03:33:54.411Z,41.30
2019-03-31T03:34:54.403Z,41.20
2019-03-31T03:35:54.373Z,42.24
2019-03-31T03:36:54.362Z,41.96
2019-03-31T03:37:54.355Z,42.24
2019-03-31T03:38:54.330Z,42.05
2019-03-31T03:39:54.316Z,42.34
2019-03-31T03:40:54.298Z,42.34
2019-03-31T03:41:54.288Z,42.82
2019-03-31T03:42:54.267Z,42.91
2019-03-31T03:43:57.036Z,43.29
2019-03-31T03:44:54.240Z,43.57
2019-03-31T03:45:54.227Z,43.86
2019-03-31T03:46:54.209Z,43.95
2019-03-31T03:47:54.199Z,44.14
2019-03-31T03:48:54.237Z,44.14
2019-03-31T03:49:54.174Z,44.05
2019-03-31T03:50:54.148Z,44.24
2019-03-31T03:51:54.134Z,44.24
2019-03-31T03:52:54.123Z,44.14
2019-03-31T03:53:54.113Z,44.24
2019-03-31T03:54:54.087Z,44.62
2019-03-31T03:55:54.074Z,44.43
2019-03-31T03:56:54.059Z,45.00
2019-03-31T03:57:54.042Z,44.81
2019-03-31T03:58:54.028Z,44.24
2019-03-31T03:59:54.016Z,44.14
2019-03-31T04:00:54.002Z,44.71
2019-03-31T04:01:53.988Z,45.00
2019-03-31T04:02:53.967Z,44.14
2019-03-31T04:03:53.955Z,43.76
2019-03-31T04:04:53.941Z,43.29
2019-03-31T04:05:53.924Z,42.63
2019-03-31T04:06:53.909Z,42.82
2019-03-31T04:07:53.896Z,42.53
2019-03-31T04:08:53.878Z,42.43
2019-03-31T04:09:53.864Z,42.34
2019-03-31T04:10:53.862Z,42.05
2019-03-31T04:11:53.839Z,43.48
2019-03-31T04:12:53.821Z,43.48
2019-03-31T04:13:53.819Z,43.10
2019-03-31T04:14:53.796Z,42.53
2019-03-31T04:15:53.780Z,42.53
2019-03-31T04:16:53.764Z,42.34
2019-03-31T04:17:53.745Z,43.57
2019-03-31T04:18:53.752Z,44.34
2019-03-31T04:19:53.715Z,44.53
2019-03-31T04:20:53.704Z,45.09
2019-03-31T04:21:53.685Z,44.62
2019-03-31T04:22:53.669Z,44.24
2019-03-31T04:23:53.661Z,44.24
2019-03-31T04:24:53.641Z,44.24
2019-03-31T04:25:53.642Z,43.57
2019-03-31T04:26:53.608Z,43.10
2019-03-31T04:27:53.636Z,42.82
2019-03-31T04:28:53.581Z,42.72
2019-03-31T04:29:53.671Z,42.89
2019-03-31T04:30:53.548Z,43.36
2019-03-31T04:31:53.536Z,43.17
2019-03-31T04:32:53.524Z,43.17
2019-03-31T04:33:53.541Z,43.36
2019-03-31T04:34:53.493Z,44.21
2019-03-31T04:35:53.484Z,43.74
2019-03-31T04:36:53.489Z,42.60
2019-03-31T04:37:53.447Z,41.27
2019-03-31T04:38:53.428Z,41.08
2019-03-31T04:39:53.430Z,41.18
2019-03-31T04:40:53.401Z,41.75
2019-03-31T04:41:53.389Z,41.75
2019-03-31T04:42:53.365Z,42.70
2019-03-31T04:43:53.351Z,42.98
2019-03-31T04:44:53.337Z,43.65
2019-03-31T04:45:53.319Z,43.55
2019-03-31T04:46:53.312Z,43.74
2019-03-31T04:47:53.294Z,43.93
2019-03-31T04:48:53.276Z,44.21
2019-03-31T04:49:53.257Z,43.84
2019-03-31T04:50:53.244Z,44.12
2019-03-31T04:51:53.230Z,44.12
2019-03-31T04:52:53.218Z,44.31
2019-03-31T04:53:53.197Z,44.12
2019-03-31T04:54:53.185Z,43.93
2019-03-31T04:55:53.171Z,44.12
2019-03-31T04:56:53.155Z,44.12
2019-03-31T04:57:53.139Z,43.55
2019-03-31T04:58:53.123Z,41.85
2019-03-31T04:59:53.107Z,41.18
2019-03-31T05:00:53.094Z,40.70
2019-03-31T05:01:53.078Z,41.46
2019-03-31T05:02:53.062Z,42.70
2019-03-31T05:04:04.674Z,42.89
2019-03-31T05:04:53.028Z,41.66
2019-03-31T05:05:53.018Z,41.37
2019-03-31T05:06:53.000Z,40.52
2019-03-31T05:07:52.986Z,40.14
2019-03-31T05:08:52.968Z,40.23
2019-03-31T05:09:52.951Z,40.52
2019-03-31T05:10:52.938Z,41.18
2019-03-31T05:11:52.925Z,41.75
2019-03-31T05:12:52.908Z,41.85
2019-03-31T05:13:52.893Z,41.85
2019-03-31T05:14:52.945Z,41.56
2019-03-31T05:15:52.867Z,41.85
2019-03-31T05:16:52.851Z,42.51
2019-03-31T05:17:52.828Z,42.60
2019-03-31T05:18:52.810Z,42.98
2019-03-31T05:19:52.798Z,43.27
2019-03-31T05:20:52.784Z,43.55
2019-03-31T05:21:52.768Z,42.89
2019-03-31T05:22:53.064Z,41.18
2019-03-31T05:23:52.738Z,39.66
2019-03-31T05:24:52.723Z,39.09
2019-03-31T05:25:52.707Z,39.95
2019-03-31T05:26:52.696Z,40.52
2019-03-31T05:27:52.677Z,41.27
2019-03-31T05:28:52.663Z,41.27
2019-03-31T05:29:52.648Z,40.52
2019-03-31T05:30:52.629Z,40.14
2019-03-31T05:31:52.616Z,40.14
2019-03-31T05:32:52.601Z,40.33
2019-03-31T05:33:52.586Z,40.42
2019-03-31T05:34:52.565Z,40.80
2019-03-31T05:35:52.558Z,41.18
2019-03-31T05:36:52.539Z,41.08
2019-03-31T05:37:52.524Z,41.46
2019-03-31T05:38:52.506Z,41.08
2019-03-31T05:39:52.493Z,41.37
2019-03-31T05:40:52.479Z,41.75
2019-03-31T05:41:52.458Z,42.51
2019-03-31T05:42:52.464Z,42.60
2019-03-31T05:44:05.066Z,43.74
2019-03-31T05:44:52.417Z,43.55
2019-03-31T05:45:52.685Z,43.27
2019-03-31T05:46:52.384Z,43.74
2019-03-31T05:47:52.366Z,43.55
2019-03-31T05:48:52.354Z,43.93
2019-03-31T05:49:52.336Z,44.12
2019-03-31T05:50:52.323Z,43.93
2019-03-31T05:51:52.310Z,44.02
2019-03-31T05:52:52.290Z,44.21
2019-03-31T05:53:52.273Z,44.02
2019-03-31T05:54:52.261Z,43.55
2019-03-31T05:55:52.246Z,43.65
2019-03-31T05:56:52.231Z,43.08
2019-03-31T05:57:52.211Z,42.98
2019-03-31T05:58:52.196Z,42.89
2019-03-31T05:59:52.183Z,42.79
2019-03-31T06:00:52.165Z,41.85
2019-03-31T06:01:52.149Z,41.37
2019-03-31T06:02:52.134Z,40.33
2019-03-31T06:03:52.124Z,41.37
2019-03-31T06:04:52.105Z,41.27
2019-03-31T06:05:52.094Z,41.18
2019-03-31T06:06:52.079Z,40.33
2019-03-31T06:07:52.059Z,39.95
2019-03-31T06:08:52.049Z,39.76
2019-03-31T06:09:52.030Z,40.52
2019-03-31T06:10:52.014Z,41.20
2019-03-31T06:11:53.552Z,41.18
2019-03-31T06:12:51.982Z,40.63
2019-03-31T06:13:51.969Z,40.06
2019-03-31T06:14:51.951Z,39.87
2019-03-31T06:15:51.938Z,40.44
2019-03-31T06:16:51.921Z,40.92
2019-03-31T06:17:51.904Z,41.49
2019-03-31T06:18:51.891Z,41.20
2019-03-31T06:19:51.878Z,41.11
2019-03-31T06:20:51.859Z,40.82
2019-03-31T06:21:51.846Z,40.44
2019-03-31T06:22:51.830Z,39.68
2019-03-31T06:23:51.810Z,39.97
2019-03-31T06:24:51.798Z,39.68
2019-03-31T06:25:51.786Z,40.06
2019-03-31T06:26:51.768Z,41.11
2019-03-31T06:27:51.756Z,40.53
2019-03-31T06:28:51.742Z,40.34
2019-03-31T06:29:51.719Z,40.63
2019-03-31T06:30:51.707Z,41.11
2019-03-31T06:31:51.697Z,41.49
2019-03-31T06:32:53.932Z,42.15
2019-03-31T06:33:51.661Z,42.43
2019-03-31T06:34:51.647Z,43.01
2019-03-31T06:35:51.633Z,43.10
2019-03-31T06:36:51.618Z,43.19
2019-03-31T06:37:51.597Z,42.43
2019-03-31T06:38:51.586Z,41.67
2019-03-31T06:39:51.570Z,41.20
2019-03-31T06:40:51.552Z,41.11
2019-03-31T06:41:51.542Z,40.25
2019-03-31T06:42:51.523Z,40.63
2019-03-31T06:43:51.513Z,41.49
2019-03-31T06:44:51.492Z,41.01
2019-03-31T06:45:51.480Z,41.49
2019-03-31T06:46:51.464Z,41.86
2019-03-31T06:47:51.450Z,42.24
2019-03-31T06:48:51.440Z,42.34
2019-03-31T06:49:51.417Z,42.55
2019-03-31T06:50:51.400Z,42.27
2019-03-31T06:51:51.390Z,41.31
2019-03-31T06:52:51.374Z,41.41
2019-03-31T06:53:51.357Z,41.50
2019-03-31T06:54:51.343Z,41.50
2019-03-31T06:55:51.327Z,41.22
2019-03-31T06:56:51.313Z,41.43
2019-03-31T06:57:51.333Z,40.95
2019-03-31T06:58:51.286Z,40.48
2019-03-31T06:59:51.267Z,40.39
2019-03-31T07:00:51.255Z,40.39
2019-03-31T07:01:51.238Z,40.29
2019-03-31T07:02:51.222Z,40.31
2019-03-31T07:03:51.209Z,40.22
2019-03-31T07:05:00.816Z,40.03
2019-03-31T07:05:51.176Z,40.50
2019-03-31T07:06:51.166Z,40.22
2019-03-31T07:07:51.148Z,39.84
2019-03-31T07:08:51.130Z,39.86
2019-03-31T07:09:51.120Z,39.76
2019-03-31T07:10:51.105Z,39.86
2019-03-31T07:11:51.088Z,39.67
2019-03-31T07:12:51.081Z,39.28
2019-03-31T07:13:51.060Z,38.83
2019-03-31T07:14:51.043Z,39.02
2019-03-31T07:15:51.029Z,38.83
2019-03-31T07:16:51.016Z,38.83
2019-03-31T07:17:51.010Z,38.35
2019-03-31T07:18:50.986Z,38.28
2019-03-31T07:19:50.976Z,37.78
2019-03-31T07:20:50.969Z,37.59
2019-03-31T07:21:50.944Z,37.90
2019-03-31T07:22:50.930Z,37.61
2019-03-31T07:23:50.917Z,37.71
2019-03-31T07:24:51.552Z,37.52
2019-03-31T07:25:50.891Z,37.13
2019-03-31T07:26:50.874Z,37.25
2019-03-31T07:27:50.866Z,37.06
2019-03-31T07:28:50.847Z,36.68
2019-03-31T07:29:50.835Z,36.58
2019-03-31T07:30:50.826Z,36.68
2019-03-31T07:31:50.804Z,36.10
2019-03-31T07:32:50.791Z,36.12
2019-03-31T07:33:50.778Z,35.74
2019-03-31T07:34:50.766Z,35.46
2019-03-31T07:35:50.753Z,35.36
2019-03-31T07:36:50.741Z,35.55
2019-03-31T07:37:50.722Z,35.55
2019-03-31T07:38:50.745Z,35.36
2019-03-31T07:39:50.959Z,35.38
2019-03-31T07:40:51.103Z,35.19
2019-03-31T07:41:51.067Z,34.81
2019-03-31T07:42:51.242Z,34.23
2019-03-31T07:43:50.673Z,34.14
2019-03-31T07:44:50.630Z,34.05
2019-03-31T07:45:50.618Z,33.87
2019-03-31T07:46:50.599Z,33.01
2019-03-31T07:47:50.598Z,33.11
2019-03-31T07:48:50.577Z,33.58
2019-03-31T07:49:50.564Z,33.58
2019-03-31T07:50:50.552Z,33.97
2019-03-31T07:51:50.539Z,33.12
2019-03-31T07:52:50.527Z,32.07
2019-03-31T07:53:50.515Z,31.98
2019-03-31T07:54:50.499Z,31.88
2019-03-31T07:55:50.487Z,32.36
2019-03-31T07:56:50.474Z,32.45
2019-03-31T07:57:50.462Z,31.50
2019-03-31T07:58:50.448Z,30.64
2019-03-31T07:59:50.438Z,29.99
2019-03-31T08:00:50.426Z,29.41
2019-03-31T08:01:50.416Z,29.32
2019-03-31T08:02:50.397Z,29.41
2019-03-31T08:03:50.390Z,29.03
2019-03-31T08:04:50.378Z,28.94
2019-03-31T08:05:50.361Z,28.76
2019-03-31T08:06:50.349Z,28.19
2019-03-31T08:07:50.336Z,27.23
2019-03-31T08:08:53.246Z,26.95
2019-03-31T08:09:50.310Z,27.23
2019-03-31T08:10:50.299Z,27.71
2019-03-31T08:11:50.292Z,28.09
2019-03-31T08:12:50.295Z,28.11
2019-03-31T08:13:50.264Z,27.91
2019-03-31T08:14:50.261Z,27.25
2019-03-31T08:15:50.250Z,27.44
2019-03-31T08:16:50.227Z,27.25
2019-03-31T08:17:50.214Z,28.58
2019-03-31T08:18:50.212Z,28.49
2019-03-31T08:19:50.192Z,28.49
2019-03-31T08:20:50.180Z,28.12
2019-03-31T08:21:50.170Z,27.36
2019-03-31T08:22:50.159Z,27.36
2019-03-31T08:23:50.144Z,27.16
2019-03-31T08:24:50.135Z,27.26
2019-03-31T08:25:50.125Z,25.82
2019-03-31T08:26:50.112Z,25.92
2019-03-31T08:27:50.100Z,25.15
2019-03-31T08:28:50.084Z,24.39
2019-03-31T08:30:00.189Z,23.82
2019-03-31T08:30:50.066Z,24.01
2019-03-31T08:31:50.058Z,24.09
2019-03-31T08:32:50.046Z,23.80
2019-03-31T08:33:50.033Z,24.09
2019-03-31T08:34:50.023Z,23.90
2019-03-31T08:35:50.009Z,24.48
2019-03-31T08:36:49.997Z,24.95
2019-03-31T08:37:49.987Z,25.06
2019-03-31T08:38:49.977Z,24.66
2019-03-31T08:39:49.961Z,25.04
2019-03-31T08:40:49.953Z,25.04
2019-03-31T08:41:49.941Z,24.28
2019-03-31T08:42:49.927Z,23.71
2019-03-31T08:43:49.917Z,23.80
2019-03-31T08:44:49.910Z,23.43
2019-03-31T08:45:49.980Z,23.13
2019-03-31T08:46:49.894Z,22.66
2019-03-31T08:47:49.878Z,22.08
2019-03-31T08:48:49.866Z,23.23
2019-03-31T08:49:49.931Z,22.66
2019-03-31T08:50:49.842Z,22.47
2019-03-31T08:51:49.829Z,22.37
2019-03-31T08:52:49.818Z,22.28
2019-03-31T08:53:49.812Z,22.38
2019-03-31T08:54:49.799Z,22.47
2019-03-31T08:55:49.788Z,23.05
2019-03-31T08:56:49.772Z,23.35
2019-03-31T08:57:49.763Z,23.06
2019-03-31T08:58:49.753Z,21.72
2019-03-31T08:59:49.757Z,20.67
2019-03-31T09:00:49.732Z,19.89
2019-03-31T09:01:49.722Z,19.89
2019-03-31T09:02:49.711Z,20.09
2019-03-31T09:03:49.705Z,20.00
2019-03-31T09:04:49.688Z,21.24
2019-03-31T09:06:01.076Z,20.76
2019-03-31T09:06:49.668Z,20.48
2019-03-31T09:07:49.654Z,19.81
2019-03-31T09:08:49.643Z,19.71
2019-03-31T09:09:49.634Z,19.62
2019-03-31T09:10:49.625Z,19.62
2019-03-31T09:11:49.611Z,20.58
2019-03-31T09:12:49.605Z,21.45
2019-03-31T09:13:49.593Z,20.88
2019-03-31T09:14:49.583Z,21.17
2019-03-31T09:15:49.572Z,20.50
2019-03-31T09:16:49.564Z,19.74
2019-03-31T09:17:49.550Z,19.36
2019-03-31T09:18:49.538Z,18.40
2019-03-31T09:19:49.554Z,18.78
2019-03-31T09:20:49.519Z,18.88
2019-03-31T09:21:49.509Z,18.98
2019-03-31T09:22:49.497Z,18.88
2019-03-31T09:23:49.487Z,18.51
2019-03-31T09:24:49.478Z,18.89
2019-03-31T09:25:49.470Z,18.30
2019-03-31T09:26:49.457Z,19.07
2019-03-31T09:27:49.449Z,19.55
2019-03-31T09:28:49.445Z,18.78
2019-03-31T09:29:49.431Z,18.59
2019-03-31T09:30:49.420Z,18.98
2019-03-31T09:31:49.410Z,19.74
2019-03-31T09:32:49.398Z,19.74
2019-03-31T09:33:49.389Z,18.88
2019-03-31T09:34:49.383Z,19.18
2019-03-31T09:35:49.367Z,18.49
2019-03-31T09:36:49.359Z,17.63
2019-03-31T09:37:49.346Z,18.31
2019-03-31T09:38:49.340Z,18.79
2019-03-31T09:39:49.329Z,18.80
2019-03-31T09:40:49.320Z,18.99
2019-03-31T09:41:49.312Z,17.55
2019-03-31T09:42:49.313Z,17.27
2019-03-31T09:43:49.290Z,16.11
2019-03-31T09:44:49.292Z,16.02
2019-03-31T09:45:49.290Z,16.02
2019-03-31T09:46:49.264Z,17.46
2019-03-31T09:47:49.254Z,17.46
2019-03-31T09:48:49.239Z,18.04
2019-03-31T09:49:49.233Z,17.84
2019-03-31T09:50:49.230Z,17.94
2019-03-31T09:51:49.216Z,18.71
2019-03-31T09:52:49.213Z,18.32
2019-03-31T09:53:49.195Z,17.94
2019-03-31T09:54:49.188Z,18.32
2019-03-31T09:55:49.179Z,19.28
2019-03-31T09:56:49.171Z,18.51
2019-03-31T09:57:49.161Z,19.18
2019-03-31T09:58:49.151Z,18.81
2019-03-31T09:59:49.139Z,18.52
2019-03-31T10:00:49.142Z,18.24
2019-03-31T10:01:49.124Z,19.00
2019-03-31T10:02:49.113Z,18.82
2019-03-31T10:03:49.103Z,18.34
2019-03-31T10:04:49.096Z,16.80
2019-03-31T10:05:49.085Z,16.42
2019-03-31T10:06:49.090Z,15.56
2019-03-31T10:07:49.068Z,15.85
2019-03-31T10:08:49.064Z,16.33
2019-03-31T10:09:49.050Z,17.00
2019-03-31T10:10:49.054Z,16.42
2019-03-31T10:11:49.034Z,16.52
2019-03-31T10:12:49.025Z,15.56
2019-03-31T10:13:49.019Z,15.08
2019-03-31T10:14:49.003Z,15.08
2019-03-31T10:15:49.001Z,14.70
2019-03-31T10:16:48.996Z,14.32
2019-03-31T10:17:48.977Z,13.84
2019-03-31T10:18:48.973Z,13.93
2019-03-31T10:19:48.963Z,14.42
2019-03-31T10:20:48.956Z,14.51
2019-03-31T10:21:48.948Z,14.80
2019-03-31T10:22:48.938Z,14.51
2019-03-31T10:23:48.933Z,15.56
2019-03-31T10:24:48.920Z,15.85
2019-03-31T10:25:48.910Z,15.47
2019-03-31T10:26:48.903Z,15.57
2019-03-31T10:27:48.899Z,16.72
2019-03-31T10:28:48.889Z,15.67
2019-03-31T10:29:48.876Z,16.82
2019-03-31T10:30:48.870Z,17.29
2019-03-31T10:31:48.866Z,18.35
2019-03-31T10:32:48.857Z,18.35
2019-03-31T10:33:48.847Z,17.58
2019-03-31T10:34:48.836Z,17.58
2019-03-31T10:35:48.828Z,18.35
2019-03-31T10:36:48.821Z,17.49
2019-03-31T10:37:48.813Z,17.49
2019-03-31T10:38:48.805Z,17.49
2019-03-31T10:39:48.795Z,17.88
2019-03-31T10:40:48.785Z,17.88
2019-03-31T10:41:48.779Z,16.92
2019-03-31T10:42:48.771Z,16.82
2019-03-31T10:43:48.764Z,17.11
2019-03-31T10:44:48.756Z,16.82
2019-03-31T10:45:48.750Z,16.34
2019-03-31T10:46:48.736Z,16.44
2019-03-31T10:47:48.731Z,16.53
2019-03-31T10:48:48.724Z,16.63
2019-03-31T10:49:48.714Z,16.44
2019-03-31T10:50:48.714Z,16.15
2019-03-31T10:51:48.698Z,17.69
2019-03-31T10:52:48.695Z,16.72
2019-03-31T10:53:48.678Z,16.25
2019-03-31T10:54:48.678Z,16.54
2019-03-31T10:55:48.665Z,16.15
2019-03-31T10:56:48.658Z,15.67
2019-03-31T10:57:48.649Z,15.28
2019-03-31T10:58:48.638Z,15.47
2019-03-31T10:59:48.634Z,15.67
2019-03-31T11:00:48.644Z,15.87
2019-03-31T11:01:48.620Z,15.88
2019-03-31T11:02:48.609Z,16.55
2019-03-31T11:03:48.597Z,16.06
2019-03-31T11:04:48.597Z,17.33
2019-03-31T11:05:48.581Z,16.45
2019-03-31T11:06:58.904Z,16.55
2019-03-31T11:07:48.567Z,16.36
2019-03-31T11:08:48.564Z,16.06
2019-03-31T11:09:48.552Z,14.92
2019-03-31T11:10:48.546Z,15.59
2019-03-31T11:11:48.538Z,15.11
2019-03-31T11:12:50.840Z,16.16
2019-03-31T11:13:48.524Z,16.26
2019-03-31T11:14:48.519Z,16.08
2019-03-31T11:15:48.513Z,16.17
2019-03-31T11:16:48.496Z,16.08
2019-03-31T11:17:48.493Z,15.78
2019-03-31T11:18:48.481Z,16.46
2019-03-31T11:19:48.478Z,16.37
2019-03-31T11:20:48.469Z,16.75
2019-03-31T11:21:48.461Z,15.88
2019-03-31T11:22:48.453Z,15.40
2019-03-31T11:23:48.449Z,15.40
2019-03-31T11:24:48.445Z,15.59
2019-03-31T11:25:48.433Z,15.39
2019-03-31T11:26:48.424Z,16.45
2019-03-31T11:27:48.421Z,15.39
2019-03-31T11:28:48.411Z,16.16
2019-03-31T11:29:48.399Z,16.75
2019-03-31T11:30:48.392Z,16.17
2019-03-31T11:31:48.383Z,16.65
2019-03-31T11:32:48.376Z,17.53
2019-03-31T11:33:48.372Z,16.47
2019-03-31T11:34:48.366Z,16.28
2019-03-31T11:35:48.361Z,15.90
2019-03-31T11:36:48.349Z,14.94
2019-03-31T11:37:48.348Z,14.55
2019-03-31T11:38:48.330Z,14.74
2019-03-31T11:39:48.332Z,14.64
2019-03-31T11:40:48.323Z,15.61
2019-03-31T11:41:48.313Z,16.10
2019-03-31T11:42:48.308Z,14.26
2019-03-31T11:43:48.306Z,13.88
2019-03-31T11:44:48.293Z,14.47
2019-03-31T11:45:48.284Z,14.76
2019-03-31T11:46:48.281Z,14.18
2019-03-31T11:47:48.275Z,14.09
2019-03-31T11:48:48.266Z,14.29
2019-03-31T11:49:48.263Z,13.23
2019-03-31T11:50:48.249Z,14.38
2019-03-31T11:51:48.248Z,14.38
2019-03-31T11:52:48.242Z,14.28
2019-03-31T11:53:48.230Z,14.57
2019-03-31T11:54:48.224Z,14.85
2019-03-31T11:55:48.218Z,14.66
2019-03-31T11:56:48.208Z,14.46
2019-03-31T11:57:48.201Z,14.36
2019-03-31T11:58:48.191Z,14.65
2019-03-31T11:59:49.869Z,14.94
2019-03-31T12:00:48.188Z,14.84
2019-03-31T12:01:48.180Z,14.64
2019-03-31T12:02:48.171Z,14.45
2019-03-31T12:03:48.170Z,14.26
2019-03-31T12:04:48.161Z,14.26
2019-03-31T12:05:48.150Z,13.87
2019-03-31T12:06:48.143Z,14.16
2019-03-31T12:07:48.139Z,13.39
2019-03-31T12:08:48.132Z,13.68
2019-03-31T12:09:48.123Z,13.10
2019-03-31T12:10:48.117Z,13.01
2019-03-31T12:11:48.109Z,12.52
2019-03-31T12:12:48.106Z,12.72
2019-03-31T12:13:48.101Z,12.43
2019-03-31T12:14:59.904Z,12.73
2019-03-31T12:15:48.086Z,13.11
2019-03-31T12:16:48.078Z,13.11
2019-03-31T12:17:48.071Z,13.11
2019-03-31T12:18:48.061Z,12.73
2019-03-31T12:19:48.839Z,12.92
2019-03-31T12:20:48.055Z,13.11
2019-03-31T12:21:48.039Z,13.21
2019-03-31T12:22:48.038Z,13.11
2019-03-31T12:23:48.038Z,13.01
2019-03-31T12:24:48.029Z,13.21
2019-03-31T12:25:48.021Z,13.88
2019-03-31T12:26:48.014Z,14.07
2019-03-31T12:27:48.007Z,13.29
2019-03-31T12:28:48.001Z,13.97
2019-03-31T12:29:47.989Z,13.87
2019-03-31T12:30:47.984Z,14.55
2019-03-31T12:31:47.982Z,14.36
2019-03-31T12:32:47.971Z,13.49
2019-03-31T12:33:47.965Z,14.07
2019-03-31T12:34:47.957Z,13.97
2019-03-31T12:35:47.954Z,14.26
2019-03-31T12:36:48.030Z,14.84
2019-03-31T12:37:47.943Z,15.22
2019-03-31T12:38:47.927Z,15.70
2019-03-31T12:39:47.926Z,15.23
2019-03-31T12:40:47.921Z,15.32
2019-03-31T12:41:47.913Z,16.00
2019-03-31T12:42:47.905Z,15.04
2019-03-31T12:43:47.901Z,15.81
2019-03-31T12:44:47.896Z,15.52
2019-03-31T12:45:47.889Z,15.62
2019-03-31T12:46:47.881Z,14.64
2019-03-31T12:47:47.873Z,15.04
2019-03-31T12:48:47.871Z,15.14
2019-03-31T12:49:47.860Z,14.84
2019-03-31T12:50:47.858Z,14.46
2019-03-31T12:51:47.849Z,14.64
2019-03-31T12:52:50.947Z,14.74